createdAt,value
2024-01-04T00:01:41.320Z,77.82
2024-01-04T00:04:12.850Z,78.03
2024-01-04T00:06:46.016Z,77.68
2024-01-04T00:09:17.148Z,77.72
2024-01-04T00:11:49.988Z,78.00
2024-01-04T00:14:20.693Z,78.19
2024-01-04T00:16:52.695Z,78.71
2024-01-04T00:19:23.590Z,79.08
2024-01-04T00:21:54.096Z,79.19
2024-01-04T00:24:24.709Z,79.83
2024-01-04T00:26:55.204Z,80.02
2024-01-04T00:29:25.744Z,80.19
2024-01-04T00:31:57.157Z,79.95
2024-01-04T00:34:27.847Z,79.85
2024-01-04T00:37:00.334Z,79.36
2024-01-04T00:39:31.340Z,79.77
2024-01-04T00:42:03.362Z,79.64
2024-01-04T00:44:33.812Z,79.82
2024-01-04T00:47:04.503Z,80.05
2024-01-04T00:49:35.343Z,79.85
2024-01-04T00:52:06.822Z,79.48
2024-01-04T00:54:37.344Z,78.99
2024-01-04T00:57:09.897Z,78.71
2024-01-04T00:59:42.018Z,78.88
2024-01-04T01:02:12.474Z,78.89
2024-01-04T01:04:43.819Z,78.79
2024-01-04T01:07:14.956Z,78.76
2024-01-04T01:09:45.457Z,78.64
2024-01-04T01:12:16.044Z,78.35
2024-01-04T01:14:46.928Z,78.80
2024-01-04T01:17:17.457Z,78.61
2024-01-04T01:19:47.961Z,78.65
2024-01-04T01:22:18.482Z,78.55
2024-01-04T01:24:48.986Z,78.55
2024-01-04T01:27:19.496Z,78.32
2024-01-04T01:29:50.045Z,78.09
2024-01-04T01:32:22.890Z,78.07
2024-01-04T01:34:55.180Z,78.02
2024-01-04T01:37:25.722Z,78.25
2024-01-04T01:39:56.259Z,78.01
2024-01-04T01:42:26.826Z,77.87
2024-01-04T01:44:57.385Z,77.43
2024-01-04T01:47:29.645Z,77.68
2024-01-04T01:50:00.255Z,77.49
2024-01-04T01:52:31.046Z,77.59
2024-01-04T01:55:01.637Z,77.90
2024-01-04T01:57:34.273Z,77.78
2024-01-04T02:00:07.536Z,78.11
2024-01-04T02:02:38.546Z,77.95
2024-01-04T02:05:09.296Z,77.34
2024-01-04T02:07:39.852Z,77.42
2024-01-04T02:10:10.449Z,77.86
2024-01-04T02:12:41.298Z,78.19
2024-01-04T02:15:12.002Z,78.36
2024-01-04T02:17:42.957Z,78.65
2024-01-04T02:20:13.702Z,78.69
2024-01-04T02:22:45.870Z,79.05
2024-01-04T02:25:16.501Z,79.20
2024-01-04T02:27:47.115Z,79.11
2024-01-04T02:30:17.920Z,78.90
2024-01-04T02:32:48.666Z,79.45
2024-01-04T02:35:19.252Z,79.75
2024-01-04T02:37:49.749Z,79.47
2024-01-04T02:40:20.731Z,79.03
2024-01-04T02:42:51.304Z,79.08
2024-01-04T02:45:21.825Z,79.17
2024-01-04T02:47:52.414Z,78.36
2024-01-04T02:50:22.954Z,78.41
2024-01-04T02:52:54.453Z,78.85
2024-01-04T02:55:25.125Z,78.27
2024-01-04T02:57:55.576Z,78.80
2024-01-04T03:00:27.722Z,78.84
2024-01-04T03:02:58.293Z,78.96
2024-01-04T03:05:29.078Z,79.39
2024-01-04T03:08:00.417Z,79.65
2024-01-04T03:10:31.016Z,80.71
2024-01-04T03:13:01.609Z,80.99
2024-01-04T03:15:32.403Z,82.04
2024-01-04T03:18:03.094Z,82.93
2024-01-04T03:20:33.775Z,83.59
2024-01-04T03:23:04.292Z,84.60
2024-01-04T03:25:35.014Z,84.74
2024-01-04T03:28:05.665Z,85.57
2024-01-04T03:30:36.427Z,86.14
2024-01-04T03:33:07.226Z,86.14
2024-01-04T03:35:37.960Z,86.05
2024-01-04T03:38:08.447Z,86.44
2024-01-04T03:40:39.092Z,86.10
2024-01-04T03:43:09.657Z,86.01
2024-01-04T03:45:40.296Z,86.29
2024-01-04T03:48:10.962Z,86.27
2024-01-04T03:50:41.504Z,86.45
2024-01-04T03:53:12.042Z,86.39
2024-01-04T03:55:42.649Z,86.35
2024-01-04T03:58:13.258Z,86.45
2024-01-04T04:00:44.051Z,85.55
2024-01-04T04:03:16.216Z,86.77
2024-01-04T04:05:47.005Z,86.29
2024-01-04T04:08:17.603Z,85.64
2024-01-04T04:10:49.160Z,85.79
2024-01-04T04:13:19.667Z,86.19
2024-01-04T04:15:50.315Z,85.93
2024-01-04T04:18:21.073Z,85.72
2024-01-04T04:20:51.890Z,85.19
2024-01-04T04:23:22.323Z,85.02
2024-01-04T04:25:52.753Z,84.98
2024-01-04T04:28:23.259Z,84.94
2024-01-04T04:30:53.791Z,84.92
2024-01-04T04:33:24.374Z,84.63
2024-01-04T04:36:00.965Z,84.51
2024-01-04T04:38:27.068Z,84.56
2024-01-04T04:40:57.589Z,84.14
2024-01-04T04:43:28.219Z,84.16
2024-01-04T04:45:59.205Z,84.56
2024-01-04T04:48:29.953Z,84.28
2024-01-04T04:51:01.516Z,84.05
2024-01-04T04:53:32.077Z,84.09
2024-01-04T04:56:02.567Z,84.23
2024-01-04T04:58:33.110Z,84.19
2024-01-04T05:01:03.589Z,84.14
2024-01-04T05:03:34.136Z,83.97
2024-01-04T05:06:05.116Z,84.25
2024-01-04T05:08:37.022Z,84.15
2024-01-04T05:11:07.677Z,84.27
2024-01-04T05:13:38.227Z,84.51
2024-01-04T05:16:08.699Z,84.63
2024-01-04T05:18:39.554Z,84.43
2024-01-04T05:21:10.070Z,84.97
2024-01-04T05:23:40.700Z,84.97
2024-01-04T05:26:22.824Z,85.52
2024-01-04T05:28:54.430Z,86.09
2024-01-04T05:31:27.086Z,86.30
2024-01-04T05:33:57.830Z,86.21
2024-01-04T05:36:28.492Z,86.38
2024-01-04T05:39:01.554Z,86.49
2024-01-04T05:41:32.116Z,86.47
2024-01-04T05:44:02.717Z,86.32
2024-01-04T05:46:34.779Z,86.68
2024-01-04T05:49:05.442Z,86.30
2024-01-04T05:51:42.470Z,86.07
2024-01-04T05:54:09.772Z,86.16
2024-01-04T05:56:40.553Z,86.79
2024-01-04T05:59:11.149Z,86.78
2024-01-04T06:01:41.721Z,87.08
2024-01-04T06:04:12.358Z,86.93
2024-01-04T06:06:43.324Z,86.70
2024-01-04T06:09:14.154Z,87.19
2024-01-04T06:11:44.947Z,86.65
2024-01-04T06:14:15.653Z,87.10
2024-01-04T06:16:46.212Z,86.77
2024-01-04T06:19:16.992Z,86.38
2024-01-04T06:21:47.989Z,86.38
2024-01-04T06:24:20.072Z,86.36
2024-01-04T06:26:51.276Z,86.02
2024-01-04T06:29:22.173Z,85.64
2024-01-04T06:31:52.657Z,85.23
2024-01-04T06:34:23.278Z,85.33
2024-01-04T06:36:53.789Z,85.55
2024-01-04T06:39:24.347Z,85.18
2024-01-04T06:41:54.821Z,85.63
2024-01-04T06:44:33.792Z,86.05
2024-01-04T06:46:57.381Z,86.23
2024-01-04T06:49:28.098Z,86.27
2024-01-04T06:51:58.758Z,85.45
2024-01-04T06:54:29.503Z,85.78
2024-01-04T06:57:00.091Z,85.37
2024-01-04T06:59:30.859Z,85.27
2024-01-04T07:02:01.365Z,85.67
2024-01-04T07:04:32.110Z,85.37
2024-01-04T07:07:02.768Z,85.20
2024-01-04T07:09:40.352Z,85.02
2024-01-04T07:12:11.263Z,85.57
2024-01-04T07:14:42.421Z,86.52
2024-01-04T07:17:16.732Z,85.33
2024-01-04T07:19:47.362Z,85.23
2024-01-04T07:22:18.099Z,84.89
2024-01-04T07:24:48.695Z,83.48
2024-01-04T07:27:19.692Z,82.64
2024-01-04T07:29:52.730Z,81.93
2024-01-04T07:32:25.076Z,81.69
2024-01-04T07:35:04.069Z,82.14
2024-01-04T07:37:28.099Z,81.95
2024-01-04T07:39:58.763Z,81.58
2024-01-04T07:42:29.311Z,81.46
2024-01-04T07:45:05.856Z,81.67
2024-01-04T07:47:32.165Z,80.93
2024-01-04T07:50:02.805Z,81.43
2024-01-04T07:52:33.383Z,79.74
2024-01-04T07:55:07.104Z,79.80
2024-01-04T07:57:36.389Z,80.19
2024-01-04T08:00:19.857Z,79.35
2024-01-04T08:02:50.463Z,79.83
2024-01-04T08:05:22.653Z,79.72
2024-01-04T08:07:53.307Z,80.12
2024-01-04T08:10:24.392Z,80.74
2024-01-04T08:12:56.654Z,79.59
2024-01-04T08:15:27.247Z,79.65
2024-01-04T08:17:59.061Z,78.83
2024-01-04T08:20:29.913Z,79.05
2024-01-04T08:23:00.529Z,78.81
2024-01-04T08:25:31.244Z,79.67
2024-01-04T08:28:01.921Z,79.80
2024-01-04T08:30:32.477Z,81.05
2024-01-04T08:33:03.448Z,82.51
2024-01-04T08:35:34.016Z,82.94
2024-01-04T08:38:04.690Z,83.90
2024-01-04T08:40:39.621Z,84.62
2024-01-04T08:43:10.264Z,85.00
2024-01-04T08:45:41.021Z,85.29
2024-01-04T08:48:12.061Z,85.74
2024-01-04T08:50:42.808Z,86.04
2024-01-04T08:53:18.707Z,86.82
2024-01-04T08:55:50.464Z,87.15
2024-01-04T08:58:21.184Z,87.28
2024-01-04T09:00:53.848Z,87.51
2024-01-04T09:03:23.852Z,87.32
2024-01-04T09:05:54.481Z,86.92
2024-01-04T09:08:25.118Z,87.35
2024-01-04T09:10:55.614Z,87.35
2024-01-04T09:13:26.095Z,87.40
2024-01-04T09:15:56.703Z,86.50
2024-01-04T09:18:27.468Z,85.79
2024-01-04T09:21:00.820Z,85.57
2024-01-04T09:23:31.661Z,85.42
2024-01-04T09:26:10.402Z,84.79
2024-01-04T09:28:41.057Z,85.05
2024-01-04T09:31:12.131Z,85.15
2024-01-04T09:33:43.019Z,84.12
2024-01-04T09:36:13.753Z,84.31
2024-01-04T09:38:45.522Z,83.85
2024-01-04T09:41:31.163Z,84.72
2024-01-04T09:44:08.779Z,84.66
2024-01-04T09:46:40.593Z,85.52
2024-01-04T09:49:14.889Z,85.72
2024-01-04T09:51:47.796Z,86.11
2024-01-04T09:54:21.398Z,85.45
2024-01-04T09:56:54.233Z,84.73
2024-01-04T09:59:24.749Z,83.98
2024-01-04T10:01:56.270Z,83.89
2024-01-04T10:04:27.453Z,83.75
2024-01-04T10:07:00.271Z,83.58
2024-01-04T10:09:50.789Z,83.34
2024-01-04T10:12:22.193Z,83.49
2024-01-04T10:14:53.782Z,83.34
2024-01-04T10:17:24.380Z,83.23
2024-01-04T10:19:54.874Z,83.01
2024-01-04T10:22:25.549Z,81.68
2024-01-04T10:24:56.126Z,81.39
2024-01-04T10:27:26.788Z,81.30
2024-01-04T10:30:00.476Z,81.69
2024-01-04T10:32:32.094Z,79.97
2024-01-04T10:35:07.989Z,79.61
2024-01-04T10:37:38.749Z,79.07
2024-01-04T10:40:11.144Z,78.52
2024-01-04T10:42:45.794Z,79.27
2024-01-04T10:45:19.392Z,77.83
2024-01-04T10:47:55.617Z,76.44
2024-01-04T10:50:27.527Z,77.15
2024-01-04T10:52:59.777Z,77.15
2024-01-04T10:55:30.594Z,76.94
2024-01-04T10:58:04.223Z,76.65
2024-01-04T11:00:36.066Z,76.53
2024-01-04T11:03:10.171Z,76.22
2024-01-04T11:05:43.492Z,76.26
2024-01-04T11:08:16.104Z,76.88
2024-01-04T11:10:47.294Z,76.74
2024-01-04T11:13:19.069Z,76.40
2024-01-04T11:15:55.271Z,76.92
2024-01-04T11:19:00.867Z,76.82
2024-01-04T11:21:40.213Z,76.94
2024-01-04T11:24:30.586Z,77.55
2024-01-04T11:27:04.025Z,77.89
2024-01-04T11:29:34.753Z,77.66
2024-01-04T11:32:07.061Z,77.58
2024-01-04T11:34:39.244Z,78.11
2024-01-04T11:37:12.944Z,77.92
2024-01-04T11:40:04.560Z,77.98
2024-01-04T11:42:43.212Z,78.57
2024-01-04T11:45:19.008Z,77.88
2024-01-04T11:47:54.019Z,78.40
2024-01-04T11:50:26.592Z,77.95
2024-01-04T11:53:07.724Z,78.33
2024-01-04T11:55:38.845Z,78.20
2024-01-04T11:58:16.029Z,78.87
2024-01-04T12:00:55.563Z,82.42
2024-01-04T12:03:31.687Z,81.64
2024-01-04T12:06:03.831Z,76.29
2024-01-04T12:08:34.409Z,77.09
2024-01-04T12:11:08.699Z,79.56
2024-01-04T12:13:39.231Z,80.92
2024-01-04T12:16:09.837Z,81.96
2024-01-04T12:18:40.518Z,82.69
2024-01-04T12:21:18.091Z,82.73
2024-01-04T12:23:45.180Z,82.33
2024-01-04T12:26:16.274Z,82.87
2024-01-04T12:28:47.030Z,83.01
2024-01-04T12:31:18.083Z,83.32
2024-01-04T12:33:50.628Z,83.71
2024-01-04T12:36:25.455Z,83.50
2024-01-04T12:38:59.099Z,83.23
2024-01-04T12:41:32.991Z,83.74
2024-01-04T12:44:06.074Z,83.84
2024-01-04T12:46:36.847Z,83.94
2024-01-04T12:49:09.510Z,84.14
2024-01-04T12:51:44.298Z,84.15
2024-01-04T12:54:15.797Z,84.04
2024-01-04T12:56:46.288Z,83.78
2024-01-04T12:59:18.100Z,83.39
2024-01-04T13:01:48.866Z,83.73
2024-01-04T13:04:20.775Z,84.02
2024-01-04T13:06:51.430Z,83.66
2024-01-04T13:09:23.249Z,84.05
2024-01-04T13:11:54.534Z,83.81
2024-01-04T13:14:26.555Z,84.01
2024-01-04T13:16:58.124Z,84.21
2024-01-04T13:19:28.851Z,84.31
2024-01-04T13:22:00.224Z,84.55
2024-01-04T13:24:32.798Z,84.60
2024-01-04T13:27:06.705Z,84.81
2024-01-04T13:29:38.611Z,84.98
2024-01-04T13:32:11.100Z,85.10
2024-01-04T13:34:42.695Z,85.21
2024-01-04T13:37:13.372Z,85.14
2024-01-04T13:39:43.871Z,85.43
2024-01-04T13:42:14.580Z,85.63
2024-01-04T13:44:45.042Z,85.69
2024-01-04T13:47:17.937Z,85.59
2024-01-04T13:49:49.331Z,85.56
2024-01-04T13:52:21.592Z,85.90
2024-01-04T13:54:52.674Z,85.99
2024-01-04T13:57:24.946Z,86.06
2024-01-04T13:59:56.647Z,85.98
2024-01-04T14:02:27.468Z,86.17
2024-01-04T14:04:59.002Z,86.63
2024-01-04T14:07:32.287Z,86.46
2024-01-04T14:10:04.451Z,86.86
2024-01-04T14:12:35.144Z,86.68
2024-01-04T14:15:07.818Z,86.62
2024-01-04T14:17:40.306Z,86.82
2024-01-04T14:20:11.822Z,87.69
2024-01-04T14:22:45.546Z,86.86
2024-01-04T14:25:18.958Z,85.73
2024-01-04T14:27:48.252Z,85.40
2024-01-04T14:30:18.959Z,85.54
2024-01-04T14:32:49.876Z,86.27
2024-01-04T14:35:20.473Z,87.41
2024-01-04T14:37:51.345Z,87.29
2024-01-04T14:40:22.207Z,86.67
2024-01-04T14:42:53.779Z,86.71
2024-01-04T14:45:25.927Z,86.40
2024-01-04T14:47:56.956Z,86.02
2024-01-04T14:50:29.478Z,86.09
2024-01-04T14:53:01.637Z,86.05
2024-01-04T14:55:33.187Z,86.25
2024-01-04T14:58:03.864Z,86.51
2024-01-04T15:00:34.743Z,86.82
2024-01-04T15:03:07.236Z,86.54
2024-01-04T15:05:37.838Z,86.53
2024-01-04T15:08:08.372Z,86.18
2024-01-04T15:10:41.202Z,85.07
2024-01-04T15:13:13.757Z,85.45
2024-01-04T15:15:46.048Z,85.73
2024-01-04T15:18:18.013Z,85.60
2024-01-04T15:20:48.869Z,86.41
2024-01-04T15:23:20.000Z,86.80
2024-01-04T15:25:52.019Z,87.27
2024-01-04T15:28:23.864Z,86.86
2024-01-04T15:30:54.564Z,86.32
2024-01-04T15:33:25.412Z,85.95
2024-01-04T15:35:58.172Z,85.87
2024-01-04T15:38:32.409Z,85.20
2024-01-04T15:41:03.997Z,84.21
2024-01-04T15:43:37.401Z,84.47
2024-01-04T15:46:08.259Z,84.78
2024-01-04T15:48:40.449Z,84.41
2024-01-04T15:51:15.251Z,84.04
2024-01-04T15:53:45.898Z,83.38
2024-01-04T15:56:19.016Z,83.75
2024-01-04T15:58:51.312Z,83.40
2024-01-04T16:01:22.047Z,83.50
2024-01-04T16:03:54.486Z,83.39
2024-01-04T16:06:25.734Z,83.70
2024-01-04T16:08:59.021Z,83.58
2024-01-04T16:11:29.568Z,83.17
2024-01-04T16:14:00.145Z,83.01
2024-01-04T16:16:30.613Z,82.59
2024-01-04T16:19:01.422Z,82.87
2024-01-04T16:21:34.174Z,83.41
2024-01-04T16:24:04.831Z,83.47
2024-01-04T16:26:35.461Z,83.71
2024-01-04T16:29:08.276Z,83.54
2024-01-04T16:31:38.892Z,83.83
2024-01-04T16:34:09.720Z,83.80
2024-01-04T16:36:40.287Z,83.97
2024-01-04T16:39:11.772Z,83.79
2024-01-04T16:41:47.423Z,83.51
2024-01-04T16:44:18.158Z,83.29
2024-01-04T16:46:49.896Z,82.89
2024-01-04T16:49:22.953Z,82.97
2024-01-04T16:51:53.717Z,82.87
2024-01-04T16:54:28.158Z,83.07
2024-01-04T16:56:59.967Z,82.55
2024-01-04T16:59:33.351Z,83.19
2024-01-04T17:02:04.552Z,83.11
2024-01-04T17:04:35.332Z,82.84
2024-01-04T17:07:06.084Z,83.78
2024-01-04T17:09:37.630Z,83.91
2024-01-04T17:12:11.955Z,83.73
2024-01-04T17:14:44.156Z,83.69
2024-01-04T17:17:15.719Z,83.56
2024-01-04T17:19:46.322Z,84.07
2024-01-04T17:22:16.938Z,83.79
2024-01-04T17:24:47.470Z,83.16
2024-01-04T17:27:18.695Z,83.51
2024-01-04T17:29:49.278Z,83.27
2024-01-04T17:32:19.872Z,83.39
2024-01-04T17:34:51.137Z,83.95
2024-01-04T17:37:21.785Z,83.62
2024-01-04T17:39:52.770Z,83.36
2024-01-04T17:42:23.310Z,83.49
2024-01-04T17:44:56.212Z,82.71
2024-01-04T17:47:29.869Z,83.12
2024-01-04T17:50:01.599Z,82.58
2024-01-04T17:52:33.256Z,83.23
2024-01-04T17:55:06.996Z,82.67
2024-01-04T17:57:39.663Z,82.73
2024-01-04T18:00:12.793Z,82.84
2024-01-04T18:02:43.040Z,82.69
2024-01-04T18:05:13.745Z,82.58
2024-01-04T18:07:45.407Z,82.28
2024-01-04T18:10:16.443Z,81.92
2024-01-04T18:12:47.614Z,82.03
2024-01-04T18:15:20.997Z,82.00
2024-01-04T18:17:53.658Z,82.16
2024-01-04T18:20:24.122Z,82.28
2024-01-04T18:22:55.839Z,82.17
2024-01-04T18:25:26.860Z,82.63
2024-01-04T18:27:58.864Z,82.02
2024-01-04T18:30:29.922Z,82.43
2024-01-04T18:33:00.938Z,82.58
2024-01-04T18:35:33.260Z,82.11
2024-01-04T18:38:05.796Z,82.57
2024-01-04T18:40:36.324Z,82.40
2024-01-04T18:43:11.005Z,82.60
2024-01-04T18:45:42.408Z,82.27
2024-01-04T18:48:14.687Z,81.41
2024-01-04T18:50:45.305Z,81.39
2024-01-04T18:53:18.812Z,81.64
2024-01-04T18:55:51.631Z,82.20
2024-01-04T18:58:23.177Z,81.95
2024-01-04T19:00:55.416Z,81.95
2024-01-04T19:03:26.065Z,82.10
2024-01-04T19:05:58.181Z,81.69
2024-01-04T19:08:30.481Z,81.67
2024-01-04T19:11:03.004Z,81.85
2024-01-04T19:13:34.308Z,81.87
2024-01-04T19:16:06.128Z,81.63
2024-01-04T19:18:38.799Z,81.54
2024-01-04T19:21:09.736Z,81.59
2024-01-04T19:23:41.781Z,81.55
2024-01-04T19:26:12.722Z,81.63
2024-01-04T19:28:43.919Z,81.62
2024-01-04T19:31:15.355Z,81.96
2024-01-04T19:33:46.466Z,81.89
2024-01-04T19:36:17.460Z,81.68
2024-01-04T19:38:48.329Z,81.52
2024-01-04T19:41:20.341Z,81.59
2024-01-04T19:43:52.480Z,82.03
2024-01-04T19:46:23.165Z,81.96
2024-01-04T19:48:53.914Z,81.18
2024-01-04T19:51:24.981Z,82.00
2024-01-04T19:53:55.608Z,81.66
2024-01-04T19:56:26.436Z,82.03
2024-01-04T19:58:58.721Z,81.57
2024-01-04T20:01:30.314Z,81.55
2024-01-04T20:04:02.771Z,81.52
2024-01-04T20:06:33.388Z,81.68
2024-01-04T20:09:07.495Z,81.68
2024-01-04T20:11:38.995Z,81.15
2024-01-04T20:14:10.009Z,81.46
2024-01-04T20:16:43.190Z,81.76
2024-01-04T20:19:14.849Z,81.77
2024-01-04T20:21:47.685Z,81.75
2024-01-04T20:24:19.148Z,80.98
2024-01-04T20:26:49.791Z,81.28
2024-01-04T20:29:21.962Z,81.73
2024-01-04T20:31:53.031Z,81.05
2024-01-04T20:34:24.355Z,80.93
2024-01-04T20:36:58.029Z,80.80
2024-01-04T20:39:29.953Z,80.83
2024-01-04T20:42:01.444Z,81.19
2024-01-04T20:44:32.020Z,81.12
2024-01-04T20:47:02.872Z,81.34
2024-01-04T20:49:34.892Z,80.97
2024-01-04T20:52:07.165Z,80.68
2024-01-04T20:54:38.359Z,80.94
2024-01-04T20:57:10.678Z,80.18
2024-01-04T20:59:43.945Z,80.02
2024-01-04T21:02:15.585Z,79.97
2024-01-04T21:04:46.164Z,79.93
2024-01-04T21:07:16.757Z,79.83
2024-01-04T21:09:47.439Z,79.73
2024-01-04T21:12:17.954Z,79.74
2024-01-04T21:14:48.594Z,80.21
2024-01-04T21:17:19.235Z,79.50
2024-01-04T21:19:52.764Z,79.08
2024-01-04T21:22:23.770Z,79.49
2024-01-04T21:24:56.429Z,79.55
2024-01-04T21:27:28.251Z,79.24
2024-01-04T21:30:01.261Z,78.65
2024-01-04T21:32:33.114Z,78.83
2024-01-04T21:35:03.857Z,78.74
2024-01-04T21:37:34.712Z,79.00
2024-01-04T21:40:06.971Z,78.91
2024-01-04T21:42:37.714Z,78.36
2024-01-04T21:45:08.939Z,78.80
2024-01-04T21:47:39.746Z,79.09
2024-01-04T21:50:13.056Z,79.05
2024-01-04T21:52:45.329Z,79.01
2024-01-04T21:55:17.646Z,78.99
2024-01-04T21:57:49.092Z,78.96
2024-01-04T22:00:19.856Z,79.03
2024-01-04T22:02:50.570Z,78.91
2024-01-04T22:05:22.701Z,78.66
2024-01-04T22:07:57.320Z,78.73
2024-01-04T22:10:28.938Z,78.79
2024-01-04T22:12:59.652Z,78.52
2024-01-04T22:15:33.709Z,78.54
2024-01-04T22:18:06.971Z,78.78
2024-01-04T22:20:39.449Z,78.90
2024-01-04T22:23:11.839Z,79.67
2024-01-04T22:25:43.083Z,79.00
2024-01-04T22:28:16.199Z,79.80
2024-01-04T22:30:49.519Z,79.14
2024-01-04T22:33:21.544Z,79.53
2024-01-04T22:35:53.365Z,79.51
2024-01-04T22:38:25.648Z,79.39
2024-01-04T22:40:57.007Z,79.32
2024-01-04T22:43:27.502Z,78.91
2024-01-04T22:45:58.064Z,79.42
2024-01-04T22:48:29.035Z,78.66
2024-01-04T22:50:59.805Z,79.31
2024-01-04T22:53:30.611Z,78.88
2024-01-04T22:56:01.277Z,79.34
2024-01-04T22:58:35.721Z,79.67
2024-01-04T23:01:06.288Z,79.02
2024-01-04T23:03:39.445Z,78.99
2024-01-04T23:06:10.360Z,78.56
2024-01-04T23:08:41.096Z,78.61
2024-01-04T23:11:13.822Z,78.32
2024-01-04T23:13:44.416Z,78.60
2024-01-04T23:16:14.978Z,78.32
2024-01-04T23:18:47.010Z,78.22
2024-01-04T23:21:17.650Z,78.47
2024-01-04T23:23:48.721Z,78.84
2024-01-04T23:26:19.453Z,78.60
2024-01-04T23:28:50.338Z,79.09
2024-01-04T23:31:21.399Z,78.84
2024-01-04T23:33:52.702Z,77.94
2024-01-04T23:36:23.296Z,77.69
2024-01-04T23:38:53.858Z,77.84
2024-01-04T23:41:26.705Z,77.80
2024-01-04T23:43:58.941Z,77.98
2024-01-04T23:46:31.355Z,77.55
2024-01-04T23:49:03.223Z,77.77
2024-01-04T23:51:35.629Z,78.27
2024-01-04T23:54:09.768Z,77.68
2024-01-04T23:56:45.037Z,77.49
2024-01-04T23:59:15.884Z,77.87
